createdAt,value
2023-02-12T00:01:25.987Z,101228.97
2023-02-12T00:03:53.058Z,101238.19
2023-02-12T00:06:22.656Z,101225.63
2023-02-12T00:08:51.295Z,101241.97
2023-02-12T00:11:22.046Z,101240.34
2023-02-12T00:13:49.620Z,101234.25
2023-02-12T00:16:22.613Z,101231.91
2023-02-12T00:18:54.507Z,101226.66
2023-02-12T00:21:24.275Z,101229.13
2023-02-12T00:23:55.332Z,101219.53
2023-02-12T00:26:23.108Z,101223.88
2023-02-12T00:28:50.957Z,101219.81
2023-02-12T00:31:24.068Z,101226.50
2023-02-12T00:33:53.276Z,101213.66
2023-02-12T00:36:22.944Z,101228.06
2023-02-12T00:38:52.120Z,101199.34
2023-02-12T00:41:21.178Z,101206.09
2023-02-12T00:43:48.727Z,101203.41
2023-02-12T00:46:18.200Z,101208.41
2023-02-12T00:48:47.596Z,101213.66
2023-02-12T00:51:16.900Z,101203.44
2023-02-12T00:53:43.627Z,101209.38
2023-02-12T00:56:14.755Z,101207.56
2023-02-12T00:58:43.377Z,101206.13
2023-02-12T01:01:12.311Z,101212.66
2023-02-12T01:03:39.094Z,101211.88
2023-02-12T01:06:11.366Z,101212.13
2023-02-12T01:08:38.027Z,101215.78
2023-02-12T01:11:05.712Z,101204.38
2023-02-12T01:13:37.575Z,101195.56
2023-02-12T01:16:33.775Z,101207.19
2023-02-12T01:19:00.417Z,101212.44
2023-02-12T01:21:32.590Z,101202.44
2023-02-12T01:23:59.711Z,101200.69
2023-02-12T01:26:27.594Z,101195.66
2023-02-12T01:29:01.427Z,101207.34
2023-02-12T01:31:32.563Z,101184.69
2023-02-12T01:34:02.953Z,101170.78
2023-02-12T01:36:32.334Z,101179.47
2023-02-12T01:38:59.327Z,101160.44
2023-02-12T01:41:28.682Z,101163.41
2023-02-12T01:44:27.686Z,101169.63
2023-02-12T01:47:05.211Z,101170.06
2023-02-12T01:49:48.132Z,101165.34
2023-02-12T01:52:28.547Z,101173.59
2023-02-12T01:55:00.267Z,101181.44
2023-02-12T01:57:31.037Z,101172.03
2023-02-12T02:00:02.796Z,101188.19
2023-02-12T02:02:31.842Z,101186.28
2023-02-12T02:05:02.945Z,101188.56
2023-02-12T02:07:32.140Z,101193.19
2023-02-12T02:09:59.461Z,101196.09
2023-02-12T02:12:46.018Z,101193.63
2023-02-12T02:15:12.638Z,101186.28
2023-02-12T02:17:54.821Z,101188.41
2023-02-12T02:20:48.473Z,101188.56
2023-02-12T02:23:49.051Z,101180.63
2023-02-12T02:26:37.367Z,101190.81
2023-02-12T02:29:57.006Z,101193.53
2023-02-12T02:32:58.494Z,101199.06
2023-02-12T02:35:36.428Z,101208.03
2023-02-12T02:38:19.314Z,101216.09
2023-02-12T02:40:56.290Z,101224.91
2023-02-12T02:43:29.740Z,101228.25
2023-02-12T02:46:02.988Z,101233.50
2023-02-12T02:48:40.796Z,101232.13
2023-02-12T02:51:16.733Z,101222.78
2023-02-12T02:53:49.301Z,101218.44
2023-02-12T02:56:19.085Z,101222.59
2023-02-12T02:59:01.175Z,101231.38
2023-02-12T03:01:43.256Z,101236.69
2023-02-12T03:04:26.971Z,101234.69
2023-02-12T03:07:05.402Z,101236.34
2023-02-12T03:09:45.922Z,101249.59
2023-02-12T03:12:33.410Z,101242.44
2023-02-12T03:15:14.330Z,101248.94
2023-02-12T03:17:49.494Z,101256.13
2023-02-12T03:20:20.924Z,101261.91
2023-02-12T03:22:56.574Z,101262.97
2023-02-12T03:25:33.693Z,101261.34
2023-02-12T03:28:29.332Z,101260.81
2023-02-12T03:31:33.084Z,101271.97
2023-02-12T03:34:24.652Z,101280.09
2023-02-12T03:37:03.206Z,101275.53
2023-02-12T03:40:03.677Z,101273.09
2023-02-12T03:42:57.815Z,101284.84
2023-02-12T03:45:41.241Z,101272.09
2023-02-12T03:48:22.751Z,101279.63
2023-02-12T03:50:51.521Z,101288.50
2023-02-12T03:53:20.346Z,101291.22
2023-02-12T03:55:54.568Z,101283.59
2023-02-12T03:58:26.968Z,101296.53
2023-02-12T04:00:56.390Z,101302.50
2023-02-12T04:03:25.461Z,101300.03
2023-02-12T04:05:52.023Z,101301.63
2023-02-12T04:08:18.814Z,101308.47
2023-02-12T04:11:18.839Z,101317.09
2023-02-12T04:13:47.619Z,101326.06
2023-02-12T04:16:14.364Z,101330.09
2023-02-12T04:18:47.009Z,101328.03
2023-02-12T04:21:32.031Z,101343.16
2023-02-12T04:24:11.845Z,101346.25
2023-02-12T04:26:41.074Z,101357.13
2023-02-12T04:29:46.970Z,101364.69
2023-02-12T04:32:25.420Z,101369.09
2023-02-12T04:35:01.603Z,101363.50
2023-02-12T04:37:43.158Z,101352.63
2023-02-12T04:40:17.616Z,101349.59
2023-02-12T04:42:53.395Z,101367.81
2023-02-12T04:45:29.540Z,101368.78
2023-02-12T04:47:56.564Z,101372.31
2023-02-12T04:50:23.344Z,101383.47
2023-02-12T04:52:49.990Z,101383.06
2023-02-12T04:55:16.838Z,101394.53
2023-02-12T04:57:45.671Z,101396.28
2023-02-12T05:00:14.523Z,101402.16
2023-02-12T05:02:41.326Z,101406.66
2023-02-12T05:05:08.646Z,101411.06
2023-02-12T05:07:40.300Z,101402.72
2023-02-12T05:10:07.672Z,101423.22
2023-02-12T05:12:34.448Z,101420.66
2023-02-12T05:15:03.549Z,101416.72
2023-02-12T05:17:32.856Z,101437.47
2023-02-12T05:19:59.427Z,101433.19
2023-02-12T05:22:26.046Z,101435.69
2023-02-12T05:24:52.693Z,101444.13
2023-02-12T05:27:19.255Z,101450.56
2023-02-12T05:29:45.842Z,101461.66
2023-02-12T05:32:17.539Z,101455.44
2023-02-12T05:34:46.372Z,101449.63
2023-02-12T05:37:12.927Z,101460.41
2023-02-12T05:39:39.570Z,101459.44
2023-02-12T05:42:06.554Z,101469.22
2023-02-12T05:44:35.434Z,101475.13
2023-02-12T05:47:04.262Z,101462.81
2023-02-12T05:49:30.826Z,101461.22
2023-02-12T05:51:59.502Z,101481.59
2023-02-12T05:54:31.581Z,101480.53
2023-02-12T05:56:58.169Z,101488.53
2023-02-12T05:59:24.778Z,101485.78
2023-02-12T06:01:54.454Z,101491.91
2023-02-12T06:04:30.867Z,101504.72
2023-02-12T06:06:57.627Z,101501.50
2023-02-12T06:09:24.467Z,101514.13
2023-02-12T06:11:51.559Z,101513.56
2023-02-12T06:14:22.393Z,101517.06
2023-02-12T06:16:51.216Z,101519.78
2023-02-12T06:19:22.154Z,101519.56
2023-02-12T06:21:51.083Z,101516.69
2023-02-12T06:24:18.328Z,101527.75
2023-02-12T06:26:45.136Z,101516.09
2023-02-12T06:29:14.820Z,101520.78
2023-02-12T06:31:44.095Z,101524.50
2023-02-12T06:34:14.078Z,101533.53
2023-02-12T06:36:47.002Z,101533.09
2023-02-12T06:39:15.275Z,101523.41
2023-02-12T06:41:42.135Z,101522.53
2023-02-12T06:44:13.768Z,101540.00
2023-02-12T06:46:42.617Z,101550.78
2023-02-12T06:49:13.164Z,101558.78
2023-02-12T06:51:41.346Z,101549.22
2023-02-12T06:54:19.677Z,101561.34
2023-02-12T06:56:46.381Z,101564.13
2023-02-12T06:59:20.197Z,101569.25
2023-02-12T07:01:46.976Z,101564.44
2023-02-12T07:04:16.072Z,101567.56
2023-02-12T07:06:42.835Z,101578.25
2023-02-12T07:09:09.493Z,101577.06
2023-02-12T07:11:38.363Z,101581.63
2023-02-12T07:14:06.201Z,101596.94
2023-02-12T07:16:35.437Z,101599.88
2023-02-12T07:19:05.000Z,101600.50
2023-02-12T07:21:32.218Z,101604.06
2023-02-12T07:24:01.265Z,101603.09
2023-02-12T07:26:28.309Z,101609.66
2023-02-12T07:28:54.908Z,101612.03
2023-02-12T07:31:23.703Z,101615.78
2023-02-12T07:33:54.949Z,101622.34
2023-02-12T07:36:21.659Z,101622.38
2023-02-12T07:38:53.842Z,101624.50
2023-02-12T07:41:23.647Z,101616.47
2023-02-12T07:43:55.771Z,101630.59
2023-02-12T07:46:30.842Z,101629.91
2023-02-12T07:48:59.418Z,101642.25
2023-02-12T07:51:28.951Z,101641.94
2023-02-12T07:53:58.587Z,101640.94
2023-02-12T07:56:30.977Z,101643.78
2023-02-12T07:58:59.434Z,101639.97
2023-02-12T08:01:30.795Z,101643.66
2023-02-12T08:04:06.145Z,101649.69
2023-02-12T08:06:38.224Z,101654.63
2023-02-12T08:09:10.045Z,101648.03
2023-02-12T08:11:40.269Z,101662.09
2023-02-12T08:14:07.404Z,101663.16
2023-02-12T08:17:20.286Z,101657.03
2023-02-12T08:23:27.730Z,101660.63
2023-02-12T08:26:07.273Z,101666.25
2023-02-12T08:28:36.890Z,101667.44
2023-02-12T08:31:10.629Z,101668.22
2023-02-12T08:33:37.422Z,101666.66
2023-02-12T08:36:10.034Z,101667.53
2023-02-12T08:38:42.178Z,101680.06
2023-02-12T08:41:14.024Z,101679.34
2023-02-12T08:43:44.287Z,101664.66
2023-02-12T08:46:16.311Z,101669.47
2023-02-12T08:48:43.880Z,101673.84
2023-02-12T08:51:23.578Z,101673.56
2023-02-12T08:53:56.517Z,101681.00
2023-02-12T08:56:24.419Z,101690.50
2023-02-12T08:58:51.794Z,101680.34
2023-02-12T09:01:25.803Z,101696.09
2023-02-12T09:03:52.674Z,101696.59
2023-02-12T09:06:24.021Z,101701.44
2023-02-12T09:08:53.955Z,101706.44
2023-02-12T09:11:30.715Z,101701.94
2023-02-12T09:14:10.845Z,101700.88
2023-02-12T09:16:40.656Z,101706.19
2023-02-12T09:19:11.689Z,101710.41
2023-02-12T09:21:38.411Z,101718.91
2023-02-12T09:24:07.783Z,101717.13
2023-02-12T09:26:34.365Z,101721.25
2023-02-12T09:29:04.478Z,101730.28
2023-02-12T09:31:34.533Z,101729.44
2023-02-12T09:34:03.824Z,101726.16
2023-02-12T09:36:33.202Z,101728.91
2023-02-12T09:39:00.596Z,101732.09
2023-02-12T09:41:57.168Z,101726.50
2023-02-12T09:44:51.197Z,101730.84
2023-02-12T09:47:50.274Z,101732.13
2023-02-12T09:50:41.190Z,101736.91
2023-02-12T09:53:17.297Z,101735.78
2023-02-12T09:55:44.294Z,101739.31
2023-02-12T09:58:46.763Z,101737.66
2023-02-12T10:01:17.015Z,101738.78
2023-02-12T10:03:47.391Z,101740.84
2023-02-12T10:06:17.724Z,101738.78
2023-02-12T10:09:02.352Z,101739.91
2023-02-12T10:12:09.236Z,101751.28
2023-02-12T10:14:44.360Z,101747.19
2023-02-12T10:17:42.185Z,101743.88
2023-02-12T10:20:41.425Z,101747.81
2023-02-12T10:23:26.204Z,101756.72
2023-02-12T10:26:45.420Z,101753.81
2023-02-12T10:29:22.235Z,101746.69
2023-02-12T10:32:00.672Z,101759.81
2023-02-12T10:34:37.575Z,101764.09
2023-02-12T10:37:29.092Z,101757.41
2023-02-12T10:40:05.569Z,101759.69
2023-02-12T10:42:48.005Z,101761.53
2023-02-12T10:45:30.182Z,101763.56
2023-02-12T10:48:11.965Z,101761.97
2023-02-12T10:50:41.425Z,101760.19
2023-02-12T10:53:31.983Z,101763.72
2023-02-12T10:56:23.092Z,101757.53
2023-02-12T10:58:55.134Z,101754.63
2023-02-12T11:01:36.932Z,101757.22
2023-02-12T11:04:30.404Z,101753.13
2023-02-12T11:07:10.025Z,101757.34
2023-02-12T11:09:45.279Z,101755.72
2023-02-12T11:12:37.678Z,101761.88
2023-02-12T11:15:14.588Z,101758.34
2023-02-12T11:17:44.833Z,101763.78
2023-02-12T11:20:17.782Z,101767.75
2023-02-12T11:22:57.887Z,101759.53
2023-02-12T11:25:29.761Z,101759.75
2023-02-12T11:28:03.748Z,101763.88
2023-02-12T11:30:31.071Z,101770.44
2023-02-12T11:33:25.255Z,101772.63
2023-02-12T11:35:55.854Z,101766.06
2023-02-12T11:38:29.037Z,101771.09
2023-02-12T11:41:02.426Z,101760.84
2023-02-12T11:43:31.299Z,101777.13
2023-02-12T11:46:00.601Z,101772.88
2023-02-12T11:48:35.199Z,101777.91
2023-02-12T11:51:09.355Z,101764.16
2023-02-12T11:53:41.333Z,101772.84
2023-02-12T11:56:13.320Z,101763.75
2023-02-12T11:58:48.307Z,101771.56
2023-02-12T12:01:24.758Z,101772.06
2023-02-12T12:04:20.624Z,101765.47
2023-02-12T12:06:53.565Z,101760.41
2023-02-12T12:09:38.237Z,101756.44
2023-02-12T12:12:11.803Z,101757.09
2023-02-12T12:15:05.150Z,101760.97
2023-02-12T12:18:06.424Z,101757.59
2023-02-12T12:20:41.360Z,101753.94
2023-02-12T12:23:14.021Z,101751.16
2023-02-12T12:25:46.445Z,101748.25
2023-02-12T12:28:23.291Z,101740.28
2023-02-12T12:31:08.579Z,101740.28
2023-02-12T12:34:07.603Z,101743.09
2023-02-12T12:36:58.674Z,101746.28
2023-02-12T12:40:02.346Z,101741.56
2023-02-12T12:43:01.850Z,101744.84
2023-02-12T12:45:31.409Z,101746.06
2023-02-12T12:48:10.162Z,101744.97
2023-02-12T12:50:45.770Z,101745.13
2023-02-12T12:53:26.212Z,101742.06
2023-02-12T12:55:59.709Z,101739.78
2023-02-12T12:58:38.302Z,101751.16
2023-02-12T13:01:17.188Z,101742.66
2023-02-12T13:04:23.410Z,101749.13
2023-02-12T13:07:02.871Z,101744.41
2023-02-12T13:09:58.105Z,101751.59
2023-02-12T13:12:38.741Z,101745.88
2023-02-12T13:15:29.477Z,101750.28
2023-02-12T13:18:24.135Z,101743.47
2023-02-12T13:21:01.763Z,101745.88
2023-02-12T13:23:34.121Z,101752.31
2023-02-12T13:26:00.690Z,101744.25
2023-02-12T13:28:49.677Z,101749.63
2023-02-12T13:31:33.021Z,101752.41
2023-02-12T13:34:10.465Z,101745.88
2023-02-12T13:36:41.909Z,101750.00
2023-02-12T13:39:24.216Z,101743.25
2023-02-12T13:42:27.243Z,101754.31
2023-02-12T13:45:09.154Z,101765.53
2023-02-12T13:47:50.884Z,101764.19
2023-02-12T13:50:23.561Z,101776.09
2023-02-12T13:52:57.675Z,101772.34
2023-02-12T13:55:24.205Z,101773.13
2023-02-12T13:58:28.730Z,101778.34
2023-02-12T14:01:03.788Z,101778.81
2023-02-12T14:03:31.841Z,101784.44
2023-02-12T14:06:25.156Z,101780.84
2023-02-12T14:09:10.217Z,101775.56
2023-02-12T14:11:50.120Z,101769.38
2023-02-12T14:14:35.624Z,101772.34
2023-02-12T14:17:30.935Z,101780.91
2023-02-12T14:20:28.748Z,101782.75
2023-02-12T14:23:19.499Z,101780.72
2023-02-12T14:25:57.647Z,101783.25
2023-02-12T14:28:34.402Z,101781.47
2023-02-12T14:31:19.957Z,101788.22
2023-02-12T14:34:17.785Z,101788.53
2023-02-12T14:36:49.458Z,101789.47
2023-02-12T14:45:45.310Z,101803.06
2023-02-12T14:49:05.013Z,101799.28
2023-02-12T14:51:46.536Z,101803.94
2023-02-12T14:54:21.690Z,101800.22
2023-02-12T14:56:51.670Z,101806.16
2023-02-12T14:59:25.905Z,101805.84
2023-02-12T15:01:54.819Z,101797.66
2023-02-12T15:04:34.952Z,101799.81
2023-02-12T15:07:08.451Z,101802.16
2023-02-12T15:09:48.217Z,101801.97
2023-02-12T15:12:32.718Z,101807.31
2023-02-12T15:15:06.356Z,101804.31
2023-02-12T15:17:38.009Z,101808.63
2023-02-12T15:20:14.074Z,101816.91
2023-02-12T15:22:41.749Z,101807.78
2023-02-12T15:25:15.464Z,101808.72
2023-02-12T15:27:48.668Z,101816.34
2023-02-12T15:30:26.439Z,101811.28
2023-02-12T15:32:58.403Z,101809.88
2023-02-12T15:35:42.297Z,101809.00
2023-02-12T15:38:18.999Z,101811.47
2023-02-12T15:40:58.130Z,101799.97
2023-02-12T15:43:30.405Z,101811.34
2023-02-12T15:46:02.207Z,101815.88
2023-02-12T15:48:35.096Z,101822.69
2023-02-12T15:51:03.963Z,101833.72
2023-02-12T15:53:31.144Z,101835.50
2023-02-12T15:56:02.541Z,101840.63
2023-02-12T15:58:42.688Z,101837.09
2023-02-12T16:01:17.373Z,101843.72
2023-02-12T16:03:54.897Z,101851.03
2023-02-12T16:06:23.696Z,101852.78
2023-02-12T16:08:58.438Z,101851.19
2023-02-12T16:11:28.593Z,101859.56
2023-02-12T16:14:04.311Z,101858.38
2023-02-12T16:16:45.763Z,101875.44
2023-02-12T16:19:18.785Z,101878.78
2023-02-12T16:21:48.667Z,101869.75
2023-02-12T16:24:21.504Z,101870.28
2023-02-12T16:26:49.203Z,101874.59
2023-02-12T16:29:18.203Z,101875.59
2023-02-12T16:32:02.273Z,101884.16
2023-02-12T16:34:37.445Z,101886.13
2023-02-12T16:37:38.771Z,101882.69
2023-02-12T16:40:14.491Z,101882.28
2023-02-12T16:42:49.106Z,101885.91
2023-02-12T16:45:34.877Z,101892.50
2023-02-12T16:48:23.449Z,101903.78
2023-02-12T16:50:53.758Z,101906.84
2023-02-12T16:53:34.913Z,101908.25
2023-02-12T16:56:03.433Z,101915.00
2023-02-12T16:58:30.136Z,101908.78
2023-02-12T17:00:58.725Z,101916.81
2023-02-12T17:03:28.323Z,101920.25
2023-02-12T17:05:58.012Z,101926.34
2023-02-12T17:08:25.115Z,101918.97
2023-02-12T17:10:52.614Z,101924.66
2023-02-12T17:13:20.928Z,101922.00
2023-02-12T17:15:56.970Z,101925.41
2023-02-12T17:18:26.713Z,101931.22
2023-02-12T17:20:55.064Z,101926.97
2023-02-12T17:23:22.497Z,101924.66
2023-02-12T17:25:51.631Z,101936.78
2023-02-12T17:28:21.398Z,101922.81
2023-02-12T17:30:48.093Z,101932.41
2023-02-12T17:33:16.182Z,101925.59
2023-02-12T17:35:42.949Z,101923.41
2023-02-12T17:38:09.760Z,101921.03
2023-02-12T17:40:41.341Z,101929.06
2023-02-12T17:43:08.186Z,101929.56
2023-02-12T17:45:35.240Z,101929.94
2023-02-12T17:48:04.060Z,101930.22
2023-02-12T17:50:30.623Z,101941.06
2023-02-12T17:52:57.266Z,101940.88
2023-02-12T17:55:23.924Z,101945.06
2023-02-12T17:57:54.938Z,101953.34
2023-02-12T18:00:22.793Z,101948.09
2023-02-12T18:02:50.360Z,101947.25
2023-02-12T18:05:17.546Z,101956.63
2023-02-12T18:07:44.245Z,101956.28
2023-02-12T18:10:16.169Z,101957.66
2023-02-12T18:12:46.062Z,101953.03
2023-02-12T18:19:40.953Z,101959.19
2023-02-12T18:22:10.059Z,101962.81
2023-02-12T18:24:45.340Z,101957.06
2023-02-12T18:27:22.507Z,101967.03
2023-02-12T18:29:51.701Z,101973.13
2023-02-12T18:32:24.600Z,101971.81
2023-02-12T18:34:51.506Z,101958.78
2023-02-12T18:37:18.508Z,101964.03
2023-02-12T18:40:17.105Z,101961.47
2023-02-12T18:42:55.186Z,101970.56
2023-02-12T18:45:23.909Z,101972.56
2023-02-12T18:47:52.772Z,101974.78
2023-02-12T18:50:19.718Z,101982.00
2023-02-12T18:52:46.342Z,101979.56
2023-02-12T18:55:17.747Z,101978.63
2023-02-12T18:57:47.035Z,101980.28
2023-02-12T19:00:16.204Z,101983.41
2023-02-12T19:02:45.138Z,101971.66
2023-02-12T19:05:16.584Z,101980.28
2023-02-12T19:07:45.551Z,101978.94
2023-02-12T19:10:14.673Z,101974.28
2023-02-12T19:12:41.324Z,101972.06
2023-02-12T19:15:08.813Z,101971.00
2023-02-12T19:17:36.306Z,101969.53
2023-02-12T19:20:06.134Z,101973.16
2023-02-12T19:22:32.722Z,101977.06
2023-02-12T19:24:59.909Z,101971.41
2023-02-12T19:27:26.482Z,101986.06
2023-02-12T19:29:57.785Z,101979.44
2023-02-12T19:32:24.369Z,101983.84
2023-02-12T19:34:50.966Z,101983.66
2023-02-12T19:37:17.725Z,101989.63
2023-02-12T19:39:44.901Z,101994.03
2023-02-12T19:42:14.664Z,102002.19
2023-02-12T19:44:41.551Z,101997.88
2023-02-12T19:47:10.863Z,102012.81
2023-02-12T19:49:40.209Z,102016.50
2023-02-12T19:52:08.138Z,102008.47
2023-02-12T19:54:35.338Z,102015.81
2023-02-12T19:57:03.305Z,102008.13
2023-02-12T19:59:34.878Z,102012.72
2023-02-12T20:02:04.074Z,102016.75
2023-02-12T20:04:33.938Z,102018.47
2023-02-12T20:07:00.578Z,102023.75
2023-02-12T20:09:29.437Z,102026.13
2023-02-12T20:11:59.659Z,102029.25
2023-02-12T20:14:27.324Z,102019.59
2023-02-12T20:17:03.365Z,102019.34
2023-02-12T20:19:32.037Z,102022.41
2023-02-12T20:22:03.299Z,102020.47
2023-02-12T20:24:32.093Z,102027.25
2023-02-12T20:27:02.464Z,102042.47
2023-02-12T20:29:33.815Z,102037.75
2023-02-12T20:32:02.811Z,102040.75
2023-02-12T20:34:30.433Z,102053.25
2023-02-12T20:36:58.187Z,102055.41
2023-02-12T20:39:24.914Z,102055.91
2023-02-12T20:41:51.576Z,102056.41
2023-02-12T20:44:21.287Z,102052.56
2023-02-12T20:46:56.385Z,102062.50
2023-02-12T20:49:28.810Z,102060.97
2023-02-12T20:52:04.060Z,102073.44
2023-02-12T20:54:30.626Z,102079.00
2023-02-12T20:56:57.202Z,102084.84
2023-02-12T20:59:23.811Z,102084.88
2023-02-12T21:12:40.880Z,102091.19
2023-02-12T21:15:07.940Z,102085.13
2023-02-12T21:17:34.880Z,102083.97
2023-02-12T21:20:06.413Z,102087.16
2023-02-12T21:22:35.486Z,102082.06
2023-02-12T21:25:02.042Z,102078.00
2023-02-12T21:27:31.447Z,102084.50
2023-02-12T21:29:57.887Z,102086.66
2023-02-12T21:32:24.693Z,102079.25
2023-02-12T21:34:57.243Z,102078.00
2023-02-12T21:37:23.818Z,102080.16
2023-02-12T21:39:50.433Z,102089.03
2023-02-12T21:42:19.462Z,102081.28
2023-02-12T21:44:49.157Z,102082.56
2023-02-12T21:47:47.931Z,102094.84
2023-02-12T21:50:14.890Z,102087.59
2023-02-12T21:52:41.457Z,102092.44
2023-02-12T21:58:56.391Z,102106.66
2023-02-12T22:01:26.472Z,102118.09
2023-02-12T22:03:53.812Z,102122.16
2023-02-12T22:06:25.015Z,102127.84
2023-02-12T22:08:55.723Z,102125.47
2023-02-12T22:11:23.443Z,102124.31
2023-02-12T22:13:55.024Z,102130.28
2023-02-12T22:16:22.808Z,102124.94
2023-02-12T22:18:52.374Z,102138.72
2023-02-12T22:21:24.282Z,102145.72
2023-02-12T22:23:55.576Z,102146.72
2023-02-12T22:26:26.702Z,102148.97
2023-02-12T22:29:03.214Z,102145.94
2023-02-12T22:31:37.883Z,102147.28
2023-02-12T22:34:13.944Z,102141.84
2023-02-12T22:36:43.896Z,102142.63
2023-02-12T22:39:13.849Z,102146.31
2023-02-12T22:41:43.538Z,102142.59
2023-02-12T22:44:12.288Z,102147.88
2023-02-12T22:46:38.978Z,102151.63
2023-02-12T22:49:07.921Z,102147.78
2023-02-12T22:51:39.490Z,102155.88
2023-02-12T22:54:33.795Z,102149.66
2023-02-12T22:57:06.377Z,102145.13
2023-02-12T22:59:33.046Z,102140.22
2023-02-12T23:02:15.367Z,102139.84
2023-02-12T23:04:44.318Z,102137.84
2023-02-12T23:07:13.179Z,102146.91
2023-02-12T23:09:48.086Z,102152.25
2023-02-12T23:12:14.719Z,102154.53
2023-02-12T23:14:41.381Z,102146.47
2023-02-12T23:17:08.123Z,102157.06
2023-02-12T23:19:34.741Z,102157.53
2023-02-12T23:22:06.515Z,102153.75
2023-02-12T23:24:37.578Z,102143.72
2023-02-12T23:27:06.578Z,102154.75
2023-02-12T23:29:34.268Z,102152.72
2023-02-12T23:32:00.927Z,102157.56
2023-02-12T23:34:27.475Z,102149.66
2023-02-12T23:36:54.053Z,102158.75
2023-02-12T23:39:22.720Z,102149.84
2023-02-12T23:41:49.424Z,102154.78
2023-02-12T23:44:15.988Z,102161.03
2023-02-12T23:46:42.692Z,102149.25
2023-02-12T23:49:11.753Z,102146.56
2023-02-12T23:51:38.716Z,102146.09
2023-02-12T23:54:05.577Z,102149.59
2023-02-12T23:56:36.980Z,102148.84
2023-02-12T23:59:03.640Z,102146.22
